aviador You're here:

LFSB Decoded Metar

MULHOUSE in FRANCE
Report Time2018-01-19 05:00:00
UTC Time2018-01-19 05:23:36
Flight Rules mvfr MVFR
Wind270° at 14 kt
W.Decomp.*RWY 26: 13.8 kt HW 2.2 kt RCW
RWY 33: 6.8 kt HW 12.2 kt LCW
W.Rank270° ranks 3
Current wind is above 270° avg. (7.2)
Visibility6000 m
Phenomena:Light Rain
Clouds:Few 010 Hf
Broken 030 Hf
Broken 073 Hf
Expected CloudBase > 1,200 ft AGL from Temp-Dew spread
Ceiling3,000 ft
Temp06°C (ISA -7)
Dew Point03°C (81% RH)
AAT-0.5°C
QNH1011 hPa
Density Alt194 ft
Elevation889 ft
Report Wrong Elevation
Raw Report
LFSB 190500Z 27014KT 6000 -RA FEW010 BKN030 BKN073 06/03 Q1011
NOSIG=

Extra information for LFSB:More info

Metar Taf Metar & Taf Last 4 Metars F.Rules Stats Wind Profile Meteogram Temp Stats Airport Information Weather charts Add Link Nearby VenuesMetar ALERT Operation Metar Decoded Social comments